KLLJ

Challis Airport

Challis, Idaho, USA
METAR KLLJ 211455Z AUTO 01016KT 10SM OVC055 M01/M07 A2974 RMK AO2 SLP080 T10111072 53036
Observed Flight Rules
Jan-21 @ 14:55 UTC (an hour ago) Visual Flight Rules
Wind Visibility Clouds
10° at 16 knots 10 miles
  • Overcast at 5,500' AGL
Temperatures Readings
Current -1°C / 30°F
Dewpoint -7°C / 19°F
Humidity 64%
Altimeter 29.74" Hg
Pressure 1008 hPa
Elevation 1536
METAR KLLJ 211455Z AUTO 01016KT 10SM OVC055 M01/M07 A2974 RMK AO2 SLP080 T10111072 53036
Observed Flight Rules
Jan-21 @ 14:55 UTC
(an hour ago)
VFR
Wind Visibility
10° at 16 knots 10 miles
Clouds
  • Overcast at 5,500' AGL
Temperature Dewpoint
-1°C / 30°F -7°C / 19°F
Humidity Altimeter Pressure
64% 29.74" Hg 1008 hPa